Ely Municipal, MN

12:59 PM CST on January 29, 2015 (GMT -0600)
Ely Municipal | Change Station
CLOSE
Current Station
Airport
Location: Ely,
Elevation: 1453 ft
Nearby Weather Stations

Elev 1453 ft 47.82 °N, 91.83 °W | Updated 6 minutes ago

Snow
Snow
16 °F
Feels Like 3 °F
N
10
Wind Variable Wind from NNW
Gusts 22 mph

Today
High -- | Low -- °F
--% Chance of Precip.
Yesterday
High -- | Low -- °F
Precip. -- in
7:38 AM 5:02 PM
Waxing Gibbous, 76% visible
Pressure 30.17 in
Visibility 7.0 miles
Clouds Overcast 2200 ft
Windchill 3 °F
Dew Point 9 °F
Humidity 73%
Rainfall 0.00 in
Snow Depth Not available.
UV 1 out of 12
Pollen .10 out of 12
Air Quality Not available.
Flu Activity Not available.
METAR KELO 291853Z AUTO 33009G19KT 290V350 7SM -SN OVC022 M09/M13 A3017 RMK AO2

More Conditions Fewer Conditions

Pressure 30.17 in
Visibility 7.0 miles
Clouds Overcast 2200 ft
Windchill 3 °F
Dew Point 9 °F
Humidity 73%
Rainfall 0.00 in
Snow Depth Not available.
UV 1 out of 12
Pollen .10 out of 12
Air Quality Not available.
Flu Activity Not available.
METAR KELO 291853Z AUTO 33009G19KT 290V350 7SM -SN OVC022 M09/M13 A3017 RMK AO2

More Conditions Fewer Conditions

10-Day Weather Forecast

Almanac

Astronomy

Jan. 29, 2015 Rise Set
Actual Time
Civil Twilight
Nautical Twilight
Astronomical Twilight
Moon
Length of Visible Light
Length of Day
Tomorrow will be .
, % of the Moon is Illuminated

Today's Extremes

State Highs State Lows

Community

WunderPhotos

Upload Photos

1,791,530 photos uploaded!

WunderBlogs® & News

Nearby

Air Quality

  Air Quality AQ Index Pollutant
Not available.

Snow Depth

Station Depth Elevation

Earthquake Activity

City Distance Mag. Time & Date
Minimum magnitude displayed is 2.5.

Coastal Water Temperatures

Place Temperature

Nearby Weather Stations